sensor_id;sensor_type;location;lat;lon;timestamp;P1;durP1;ratioP1;P2;durP2;ratioP2
9547;SDS011;4812;51.992;8.648;2023-04-25T00:01:58;25.05;;;6.57;;
9547;SDS011;4812;51.992;8.648;2023-04-25T00:04:44;16.83;;;5.55;;
9547;SDS011;4812;51.992;8.648;2023-04-25T00:07:31;14.95;;;6.32;;
9547;SDS011;4812;51.992;8.648;2023-04-25T00:10:18;17.35;;;5.55;;
9547;SDS011;4812;51.992;8.648;2023-04-25T00:13:04;13.95;;;5.22;;
9547;SDS011;4812;51.992;8.648;2023-04-25T00:15:52;12.07;;;6.53;;
9547;SDS011;4812;51.992;8.648;2023-04-25T00:18:38;13.10;;;5.45;;
9547;SDS011;4812;51.992;8.648;2023-04-25T00:24:30;14.37;;;4.50;;
9547;SDS011;4812;51.992;8.648;2023-04-25T00:27:23;17.60;;;5.43;;
9547;SDS011;4812;51.992;8.648;2023-04-25T00:30:16;13.68;;;5.32;;
9547;SDS011;4812;51.992;8.648;2023-04-25T00:33:10;16.98;;;5.50;;
9547;SDS011;4812;51.992;8.648;2023-04-25T00:36:03;16.52;;;6.70;;
9547;SDS011;4812;51.992;8.648;2023-04-25T00:38:56;13.70;;;6.30;;
9547;SDS011;4812;51.992;8.648;2023-04-25T00:41:49;14.55;;;5.63;;
9547;SDS011;4812;51.992;8.648;2023-04-25T00:44:44;15.70;;;6.25;;
9547;SDS011;4812;51.992;8.648;2023-04-25T00:51:07;17.40;;;6.32;;
9547;SDS011;4812;51.992;8.648;2023-04-25T00:54:01;17.95;;;6.50;;
9547;SDS011;4812;51.992;8.648;2023-04-25T00:56:54;15.88;;;5.60;;
9547;SDS011;4812;51.992;8.648;2023-04-25T00:59:47;18.20;;;6.30;;
9547;SDS011;4812;51.992;8.648;2023-04-25T01:02:40;12.68;;;5.72;;
9547;SDS011;4812;51.992;8.648;2023-04-25T01:08:48;15.82;;;6.10;;
9547;SDS011;4812;51.992;8.648;2023-04-25T01:14:53;16.90;;;6.28;;
9547;SDS011;4812;51.992;8.648;2023-04-25T01:17:46;13.55;;;5.90;;
9547;SDS011;4812;51.992;8.648;2023-04-25T01:20:40;17.67;;;6.72;;
9547;SDS011;4812;51.992;8.648;2023-04-25T01:26:47;13.32;;;7.43;;
9547;SDS011;4812;51.992;8.648;2023-04-25T01:33:03;20.55;;;6.22;;
9547;SDS011;4812;51.992;8.648;2023-04-25T01:35:56;15.80;;;6.53;;
9547;SDS011;4812;51.992;8.648;2023-04-25T01:42:07;13.65;;;5.93;;
9547;SDS011;4812;51.992;8.648;2023-04-25T01:45:00;18.53;;;6.33;;
9547;SDS011;4812;51.992;8.648;2023-04-25T01:47:53;17.23;;;6.18;;
9547;SDS011;4812;51.992;8.648;2023-04-25T01:50:47;15.23;;;5.50;;
9547;SDS011;4812;51.992;8.648;2023-04-25T01:53:41;19.77;;;6.60;;
9547;SDS011;4812;51.992;8.648;2023-04-25T01:56:36;15.57;;;6.05;;
9547;SDS011;4812;51.992;8.648;2023-04-25T01:59:31;16.75;;;6.43;;
9547;SDS011;4812;51.992;8.648;2023-04-25T02:02:40;10.20;;;5.60;;
9547;SDS011;4812;51.992;8.648;2023-04-25T02:05:46;11.40;;;6.30;;
9547;SDS011;4812;51.992;8.648;2023-04-25T02:08:39;20.73;;;6.25;;
9547;SDS011;4812;51.992;8.648;2023-04-25T02:11:32;13.95;;;5.90;;
9547;SDS011;4812;51.992;8.648;2023-04-25T02:14:47;11.68;;;5.72;;
9547;SDS011;4812;51.992;8.648;2023-04-25T02:17:46;13.15;;;5.50;;
9547;SDS011;4812;51.992;8.648;2023-04-25T02:20:40;11.48;;;5.60;;
9547;SDS011;4812;51.992;8.648;2023-04-25T02:23:32;12.13;;;5.70;;
9547;SDS011;4812;51.992;8.648;2023-04-25T02:29:43;12.27;;;5.38;;
9547;SDS011;4812;51.992;8.648;2023-04-25T02:32:38;10.65;;;5.63;;
9547;SDS011;4812;51.992;8.648;2023-04-25T02:35:30;10.02;;;4.82;;
9547;SDS011;4812;51.992;8.648;2023-04-25T02:38:23;11.27;;;4.22;;
9547;SDS011;4812;51.992;8.648;2023-04-25T02:44:30;11.27;;;4.63;;
9547;SDS011;4812;51.992;8.648;2023-04-25T02:50:41;8.23;;;4.97;;
9547;SDS011;4812;51.992;8.648;2023-04-25T02:56:50;12.50;;;4.53;;
9547;SDS011;4812;51.992;8.648;2023-04-25T02:59:48;15.50;;;4.93;;
9547;SDS011;4812;51.992;8.648;2023-04-25T03:02:40;17.08;;;4.10;;
9547;SDS011;4812;51.992;8.648;2023-04-25T03:05:33;14.40;;;4.30;;
9547;SDS011;4812;51.992;8.648;2023-04-25T03:14:24;15.07;;;4.60;;
9547;SDS011;4812;51.992;8.648;2023-04-25T03:17:18;21.17;;;4.38;;
9547;SDS011;4812;51.992;8.648;2023-04-25T03:20:11;19.83;;;6.75;;
9547;SDS011;4812;51.992;8.648;2023-04-25T03:23:04;18.95;;;5.00;;
9547;SDS011;4812;51.992;8.648;2023-04-25T03:25:58;14.75;;;4.18;;
9547;SDS011;4812;51.992;8.648;2023-04-25T03:28:51;21.35;;;4.47;;
9547;SDS011;4812;51.992;8.648;2023-04-25T03:31:44;24.40;;;4.80;;
9547;SDS011;4812;51.992;8.648;2023-04-25T03:34:37;22.30;;;5.38;;
9547;SDS011;4812;51.992;8.648;2023-04-25T03:37:29;20.85;;;6.15;;
9547;SDS011;4812;51.992;8.648;2023-04-25T03:40:21;19.15;;;5.10;;
9547;SDS011;4812;51.992;8.648;2023-04-25T03:43:32;20.77;;;5.45;;
9547;SDS011;4812;51.992;8.648;2023-04-25T03:46:29;30.58;;;5.38;;
9547;SDS011;4812;51.992;8.648;2023-04-25T03:49:22;25.23;;;5.32;;
9547;SDS011;4812;51.992;8.648;2023-04-25T03:52:26;17.95;;;4.05;;
9547;SDS011;4812;51.992;8.648;2023-04-25T03:55:19;15.30;;;5.03;;
9547;SDS011;4812;51.992;8.648;2023-04-25T03:58:12;22.20;;;4.60;;
9547;SDS011;4812;51.992;8.648;2023-04-25T04:01:06;18.30;;;5.22;;
9547;SDS011;4812;51.992;8.648;2023-04-25T04:04:01;18.23;;;5.55;;
9547;SDS011;4812;51.992;8.648;2023-04-25T04:06:54;22.80;;;5.13;;
9547;SDS011;4812;51.992;8.648;2023-04-25T04:09:53;18.73;;;5.00;;
9547;SDS011;4812;51.992;8.648;2023-04-25T04:12:54;15.38;;;5.00;;
9547;SDS011;4812;51.992;8.648;2023-04-25T04:19:07;19.17;;;3.65;;
9547;SDS011;4812;51.992;8.648;2023-04-25T04:25:08;18.88;;;5.90;;
9547;SDS011;4812;51.992;8.648;2023-04-25T04:28:21;21.27;;;5.82;;
9547;SDS011;4812;51.992;8.648;2023-04-25T04:31:22;14.23;;;5.22;;
9547;SDS011;4812;51.992;8.648;2023-04-25T04:34:15;22.95;;;5.03;;
9547;SDS011;4812;51.992;8.648;2023-04-25T04:37:08;21.45;;;4.03;;
9547;SDS011;4812;51.992;8.648;2023-04-25T04:40:01;15.30;;;4.10;;
9547;SDS011;4812;51.992;8.648;2023-04-25T04:43:15;24.77;;;5.13;;
9547;SDS011;4812;51.992;8.648;2023-04-25T04:46:33;21.35;;;4.80;;
9547;SDS011;4812;51.992;8.648;2023-04-25T04:49:55;14.82;;;4.03;;
9547;SDS011;4812;51.992;8.648;2023-04-25T04:56:48;15.02;;;3.60;;
9547;SDS011;4812;51.992;8.648;2023-04-25T05:00:01;15.63;;;3.70;;
9547;SDS011;4812;51.992;8.648;2023-04-25T05:03:20;19.02;;;4.35;;
9547;SDS011;4812;51.992;8.648;2023-04-25T05:06:31;16.17;;;5.00;;
9547;SDS011;4812;51.992;8.648;2023-04-25T05:09:38;10.65;;;5.10;;
9547;SDS011;4812;51.992;8.648;2023-04-25T05:12:57;23.30;;;4.70;;
9547;SDS011;4812;51.992;8.648;2023-04-25T05:16:08;22.23;;;5.57;;
9547;SDS011;4812;51.992;8.648;2023-04-25T05:19:17;10.23;;;4.30;;
9547;SDS011;4812;51.992;8.648;2023-04-25T05:22:28;12.30;;;4.05;;
9547;SDS011;4812;51.992;8.648;2023-04-25T05:25:41;14.55;;;4.97;;
9547;SDS011;4812;51.992;8.648;2023-04-25T05:28:44;20.85;;;5.05;;
9547;SDS011;4812;51.992;8.648;2023-04-25T05:31:48;14.13;;;5.38;;
9547;SDS011;4812;51.992;8.648;2023-04-25T05:34:43;18.08;;;5.43;;
9547;SDS011;4812;51.992;8.648;2023-04-25T05:41:28;16.75;;;4.90;;
9547;SDS011;4812;51.992;8.648;2023-04-25T05:47:52;16.30;;;4.95;;
9547;SDS011;4812;51.992;8.648;2023-04-25T05:51:03;14.38;;;4.40;;
9547;SDS011;4812;51.992;8.648;2023-04-25T05:54:02;16.15;;;5.82;;
9547;SDS011;4812;51.992;8.648;2023-04-25T06:00:05;25.25;;;6.47;;
9547;SDS011;4812;51.992;8.648;2023-04-25T06:03:07;19.02;;;3.53;;
9547;SDS011;4812;51.992;8.648;2023-04-25T06:09:23;10.95;;;4.53;;
9547;SDS011;4812;51.992;8.648;2023-04-25T06:12:17;16.25;;;4.03;;
9547;SDS011;4812;51.992;8.648;2023-04-25T06:15:11;12.25;;;3.65;;
9547;SDS011;4812;51.992;8.648;2023-04-25T06:18:18;11.73;;;3.75;;
9547;SDS011;4812;51.992;8.648;2023-04-25T06:21:11;18.02;;;4.25;;
9547;SDS011;4812;51.992;8.648;2023-04-25T06:24:04;17.48;;;4.35;;
9547;SDS011;4812;51.992;8.648;2023-04-25T06:26:59;18.05;;;3.40;;
9547;SDS011;4812;51.992;8.648;2023-04-25T06:33:13;17.15;;;4.22;;
9547;SDS011;4812;51.992;8.648;2023-04-25T06:39:13;18.00;;;4.53;;
9547;SDS011;4812;51.992;8.648;2023-04-25T06:45:20;13.15;;;3.05;;
9547;SDS011;4812;51.992;8.648;2023-04-25T06:51:25;15.52;;;3.65;;
9547;SDS011;4812;51.992;8.648;2023-04-25T06:54:20;16.83;;;3.08;;
9547;SDS011;4812;51.992;8.648;2023-04-25T06:57:34;17.98;;;4.50;;
9547;SDS011;4812;51.992;8.648;2023-04-25T07:04:00;14.45;;;4.35;;
9547;SDS011;4812;51.992;8.648;2023-04-25T07:06:55;14.48;;;3.63;;
9547;SDS011;4812;51.992;8.648;2023-04-25T07:10:00;24.50;;;5.72;;
9547;SDS011;4812;51.992;8.648;2023-04-25T07:12:52;34.08;;;6.97;;
9547;SDS011;4812;51.992;8.648;2023-04-25T07:15:45;17.48;;;5.07;;
9547;SDS011;4812;51.992;8.648;2023-04-25T07:18:40;17.08;;;3.03;;
9547;SDS011;4812;51.992;8.648;2023-04-25T07:24:51;19.50;;;4.32;;
9547;SDS011;4812;51.992;8.648;2023-04-25T07:27:46;12.80;;;3.08;;
9547;SDS011;4812;51.992;8.648;2023-04-25T07:30:49;11.98;;;2.85;;
9547;SDS011;4812;51.992;8.648;2023-04-25T07:33:41;14.38;;;3.03;;
9547;SDS011;4812;51.992;8.648;2023-04-25T07:36:34;16.65;;;4.47;;
9547;SDS011;4812;51.992;8.648;2023-04-25T07:39:27;13.10;;;4.63;;
9547;SDS011;4812;51.992;8.648;2023-04-25T07:42:22;18.42;;;4.10;;
9547;SDS011;4812;51.992;8.648;2023-04-25T07:45:15;17.15;;;3.85;;
9547;SDS011;4812;51.992;8.648;2023-04-25T07:48:08;17.45;;;3.88;;
9547;SDS011;4812;51.992;8.648;2023-04-25T07:51:03;9.20;;;2.80;;
9547;SDS011;4812;51.992;8.648;2023-04-25T07:53:57;13.20;;;3.17;;
9547;SDS011;4812;51.992;8.648;2023-04-25T08:00:39;13.57;;;3.05;;
9547;SDS011;4812;51.992;8.648;2023-04-25T08:03:51;11.77;;;3.10;;
9547;SDS011;4812;51.992;8.648;2023-04-25T08:06:49;20.00;;;3.72;;
9547;SDS011;4812;51.992;8.648;2023-04-25T08:09:47;8.63;;;2.50;;
9547;SDS011;4812;51.992;8.648;2023-04-25T08:12:47;15.25;;;3.50;;
9547;SDS011;4812;51.992;8.648;2023-04-25T08:15:41;11.32;;;3.10;;
9547;SDS011;4812;51.992;8.648;2023-04-25T08:18:34;12.63;;;2.30;;
9547;SDS011;4812;51.992;8.648;2023-04-25T08:21:27;9.52;;;2.33;;
9547;SDS011;4812;51.992;8.648;2023-04-25T08:24:23;12.63;;;2.28;;
9547;SDS011;4812;51.992;8.648;2023-04-25T08:27:16;10.40;;;3.03;;
9547;SDS011;4812;51.992;8.648;2023-04-25T08:30:10;9.52;;;2.30;;
9547;SDS011;4812;51.992;8.648;2023-04-25T08:36:26;8.98;;;2.42;;
9547;SDS011;4812;51.992;8.648;2023-04-25T08:42:56;8.50;;;2.63;;
9547;SDS011;4812;51.992;8.648;2023-04-25T08:49:17;5.82;;;1.67;;
9547;SDS011;4812;51.992;8.648;2023-04-25T08:55:22;10.65;;;2.17;;
9547;SDS011;4812;51.992;8.648;2023-04-25T08:58:20;8.00;;;2.60;;
9547;SDS011;4812;51.992;8.648;2023-04-25T09:01:12;9.63;;;2.08;;
9547;SDS011;4812;51.992;8.648;2023-04-25T09:04:12;5.93;;;1.80;;
9547;SDS011;4812;51.992;8.648;2023-04-25T09:07:05;10.98;;;2.25;;
9547;SDS011;4812;51.992;8.648;2023-04-25T09:13:30;12.88;;;2.38;;
9547;SDS011;4812;51.992;8.648;2023-04-25T09:17:00;8.52;;;2.20;;
9547;SDS011;4812;51.992;8.648;2023-04-25T09:23:31;6.90;;;1.80;;
9547;SDS011;4812;51.992;8.648;2023-04-25T09:29:57;7.88;;;2.13;;
9547;SDS011;4812;51.992;8.648;2023-04-25T09:32:51;9.25;;;2.20;;
9547;SDS011;4812;51.992;8.648;2023-04-25T09:35:49;17.30;;;2.85;;
9547;SDS011;4812;51.992;8.648;2023-04-25T09:39:06;7.93;;;1.90;;
9547;SDS011;4812;51.992;8.648;2023-04-25T09:42:11;10.02;;;2.58;;
9547;SDS011;4812;51.992;8.648;2023-04-25T09:45:06;6.43;;;2.42;;
9547;SDS011;4812;51.992;8.648;2023-04-25T09:48:03;10.73;;;2.05;;
9547;SDS011;4812;51.992;8.648;2023-04-25T09:51:03;8.73;;;2.70;;
9547;SDS011;4812;51.992;8.648;2023-04-25T09:53:58;7.10;;;2.17;;
9547;SDS011;4812;51.992;8.648;2023-04-25T09:57:08;4.93;;;2.08;;
9547;SDS011;4812;51.992;8.648;2023-04-25T10:00:04;6.00;;;1.58;;
9547;SDS011;4812;51.992;8.648;2023-04-25T10:03:05;5.88;;;1.85;;
9547;SDS011;4812;51.992;8.648;2023-04-25T10:06:18;9.75;;;1.40;;
9547;SDS011;4812;51.992;8.648;2023-04-25T10:09:13;7.15;;;2.00;;
9547;SDS011;4812;51.992;8.648;2023-04-25T10:12:06;8.50;;;1.85;;
9547;SDS011;4812;51.992;8.648;2023-04-25T10:14:59;8.55;;;1.80;;
9547;SDS011;4812;51.992;8.648;2023-04-25T10:17:54;5.40;;;1.67;;
9547;SDS011;4812;51.992;8.648;2023-04-25T10:20:47;6.28;;;1.80;;
9547;SDS011;4812;51.992;8.648;2023-04-25T10:27:10;15.27;;;2.03;;
9547;SDS011;4812;51.992;8.648;2023-04-25T10:30:04;4.95;;;1.80;;
9547;SDS011;4812;51.992;8.648;2023-04-25T10:32:55;7.65;;;3.00;;
9547;SDS011;4812;51.992;8.648;2023-04-25T10:35:41;4.95;;;1.75;;
9547;SDS011;4812;51.992;8.648;2023-04-25T10:38:28;8.40;;;1.92;;
9547;SDS011;4812;51.992;8.648;2023-04-25T10:41:14;7.68;;;2.38;;
9547;SDS011;4812;51.992;8.648;2023-04-25T10:44:00;5.85;;;1.65;;
9547;SDS011;4812;51.992;8.648;2023-04-25T10:46:46;10.25;;;1.58;;
9547;SDS011;4812;51.992;8.648;2023-04-25T10:49:34;6.95;;;2.47;;
9547;SDS011;4812;51.992;8.648;2023-04-25T10:52:25;4.22;;;1.55;;
9547;SDS011;4812;51.992;8.648;2023-04-25T10:55:11;7.82;;;2.03;;
9547;SDS011;4812;51.992;8.648;2023-04-25T10:57:57;5.88;;;1.95;;
9547;SDS011;4812;51.992;8.648;2023-04-25T11:00:44;7.10;;;1.60;;
9547;SDS011;4812;51.992;8.648;2023-04-25T11:03:41;6.25;;;2.33;;
9547;SDS011;4812;51.992;8.648;2023-04-25T11:06:32;5.75;;;1.65;;
9547;SDS011;4812;51.992;8.648;2023-04-25T11:12:38;8.35;;;2.10;;
9547;SDS011;4812;51.992;8.648;2023-04-25T11:15:31;5.90;;;1.60;;
9547;SDS011;4812;51.992;8.648;2023-04-25T11:18:25;8.68;;;1.40;;
9547;SDS011;4812;51.992;8.648;2023-04-25T11:21:19;8.27;;;3.28;;
9547;SDS011;4812;51.992;8.648;2023-04-25T11:24:14;3.33;;;1.40;;
9547;SDS011;4812;51.992;8.648;2023-04-25T11:30:12;7.85;;;1.33;;
9547;SDS011;4812;51.992;8.648;2023-04-25T11:33:06;4.05;;;1.38;;
9547;SDS011;4812;51.992;8.648;2023-04-25T11:35:59;8.43;;;1.48;;
9547;SDS011;4812;51.992;8.648;2023-04-25T11:38:52;5.85;;;1.55;;
9547;SDS011;4812;51.992;8.648;2023-04-25T11:41:47;8.40;;;2.10;;
9547;SDS011;4812;51.992;8.648;2023-04-25T11:47:57;9.48;;;2.13;;
9547;SDS011;4812;51.992;8.648;2023-04-25T11:50:50;8.82;;;1.80;;
9547;SDS011;4812;51.992;8.648;2023-04-25T11:56:55;12.05;;;2.35;;
9547;SDS011;4812;51.992;8.648;2023-04-25T12:02:54;10.07;;;1.58;;
9547;SDS011;4812;51.992;8.648;2023-04-25T12:05:49;8.40;;;1.80;;
9547;SDS011;4812;51.992;8.648;2023-04-25T12:12:02;8.18;;;2.13;;
9547;SDS011;4812;51.992;8.648;2023-04-25T12:14:54;7.72;;;3.05;;
9547;SDS011;4812;51.992;8.648;2023-04-25T12:17:48;3.72;;;1.75;;
9547;SDS011;4812;51.992;8.648;2023-04-25T12:20:41;4.47;;;2.05;;
9547;SDS011;4812;51.992;8.648;2023-04-25T12:23:34;7.03;;;1.98;;
9547;SDS011;4812;51.992;8.648;2023-04-25T12:29:51;7.57;;;1.95;;
9547;SDS011;4812;51.992;8.648;2023-04-25T12:32:44;12.25;;;2.33;;
9547;SDS011;4812;51.992;8.648;2023-04-25T12:35:39;5.93;;;1.45;;
9547;SDS011;4812;51.992;8.648;2023-04-25T12:41:47;7.90;;;1.60;;
9547;SDS011;4812;51.992;8.648;2023-04-25T12:44:40;6.20;;;1.63;;
9547;SDS011;4812;51.992;8.648;2023-04-25T12:47:33;4.50;;;1.33;;
9547;SDS011;4812;51.992;8.648;2023-04-25T12:50:26;8.10;;;1.95;;
9547;SDS011;4812;51.992;8.648;2023-04-25T12:56:36;7.53;;;1.55;;
9547;SDS011;4812;51.992;8.648;2023-04-25T13:08:55;4.13;;;1.40;;
9547;SDS011;4812;51.992;8.648;2023-04-25T13:11:47;3.67;;;1.55;;
9547;SDS011;4812;51.992;8.648;2023-04-25T13:14:36;6.60;;;2.05;;
9547;SDS011;4812;51.992;8.648;2023-04-25T13:17:28;3.83;;;1.20;;
9547;SDS011;4812;51.992;8.648;2023-04-25T13:20:23;4.32;;;1.20;;
9547;SDS011;4812;51.992;8.648;2023-04-25T13:23:15;4.22;;;2.08;;
9547;SDS011;4812;51.992;8.648;2023-04-25T13:26:08;7.88;;;1.60;;
9547;SDS011;4812;51.992;8.648;2023-04-25T13:29:01;6.15;;;1.50;;
9547;SDS011;4812;51.992;8.648;2023-04-25T13:31:55;4.03;;;0.90;;
9547;SDS011;4812;51.992;8.648;2023-04-25T13:34:47;2.45;;;1.30;;
9547;SDS011;4812;51.992;8.648;2023-04-25T13:37:42;4.35;;;1.20;;
9547;SDS011;4812;51.992;8.648;2023-04-25T13:40:34;5.15;;;1.13;;
9547;SDS011;4812;51.992;8.648;2023-04-25T13:43:27;6.60;;;1.27;;
9547;SDS011;4812;51.992;8.648;2023-04-25T13:46:19;4.38;;;1.20;;
9547;SDS011;4812;51.992;8.648;2023-04-25T13:49:32;3.67;;;1.42;;
9547;SDS011;4812;51.992;8.648;2023-04-25T13:55:34;4.97;;;1.35;;
9547;SDS011;4812;51.992;8.648;2023-04-25T14:01:49;8.48;;;2.70;;
9547;SDS011;4812;51.992;8.648;2023-04-25T14:04:42;3.97;;;1.30;;
9547;SDS011;4812;51.992;8.648;2023-04-25T14:07:41;4.75;;;1.70;;
9547;SDS011;4812;51.992;8.648;2023-04-25T14:10:35;2.25;;;0.93;;
9547;SDS011;4812;51.992;8.648;2023-04-25T14:13:27;2.28;;;0.80;;
9547;SDS011;4812;51.992;8.648;2023-04-25T14:16:20;2.38;;;0.85;;
9547;SDS011;4812;51.992;8.648;2023-04-25T14:19:14;4.63;;;1.27;;
9547;SDS011;4812;51.992;8.648;2023-04-25T14:22:07;2.88;;;0.77;;
9547;SDS011;4812;51.992;8.648;2023-04-25T14:28:37;1.52;;;0.90;;
9547;SDS011;4812;51.992;8.648;2023-04-25T14:34:36;6.30;;;1.60;;
9547;SDS011;4812;51.992;8.648;2023-04-25T14:41:15;2.60;;;0.90;;
9547;SDS011;4812;51.992;8.648;2023-04-25T14:44:10;4.35;;;1.00;;
9547;SDS011;4812;51.992;8.648;2023-04-25T14:47:03;4.22;;;1.70;;
9547;SDS011;4812;51.992;8.648;2023-04-25T14:49:56;2.28;;;0.82;;
9547;SDS011;4812;51.992;8.648;2023-04-25T14:52:48;4.28;;;1.08;;
9547;SDS011;4812;51.992;8.648;2023-04-25T14:58:54;4.07;;;1.20;;
9547;SDS011;4812;51.992;8.648;2023-04-25T15:01:48;3.10;;;1.08;;
9547;SDS011;4812;51.992;8.648;2023-04-25T15:08:11;4.82;;;1.25;;
9547;SDS011;4812;51.992;8.648;2023-04-25T15:14:11;6.30;;;1.40;;
9547;SDS011;4812;51.992;8.648;2023-04-25T15:17:05;2.85;;;0.98;;
9547;SDS011;4812;51.992;8.648;2023-04-25T15:19:58;4.25;;;1.40;;
9547;SDS011;4812;51.992;8.648;2023-04-25T15:26:04;4.20;;;1.15;;
9547;SDS011;4812;51.992;8.648;2023-04-25T15:28:56;3.58;;;1.40;;
9547;SDS011;4812;51.992;8.648;2023-04-25T15:35:05;7.03;;;1.42;;
9547;SDS011;4812;51.992;8.648;2023-04-25T15:37:58;5.75;;;1.10;;
9547;SDS011;4812;51.992;8.648;2023-04-25T15:40:48;1.92;;;0.70;;
9547;SDS011;4812;51.992;8.648;2023-04-25T15:43:40;3.33;;;1.20;;
9547;SDS011;4812;51.992;8.648;2023-04-25T15:46:33;1.83;;;1.02;;
9547;SDS011;4812;51.992;8.648;2023-04-25T15:49:26;4.55;;;1.00;;
9547;SDS011;4812;51.992;8.648;2023-04-25T15:52:21;1.70;;;0.98;;
9547;SDS011;4812;51.992;8.648;2023-04-25T15:55:13;2.10;;;0.82;;
9547;SDS011;4812;51.992;8.648;2023-04-25T16:01:42;5.35;;;1.42;;
9547;SDS011;4812;51.992;8.648;2023-04-25T16:04:35;2.63;;;1.05;;
9547;SDS011;4812;51.992;8.648;2023-04-25T16:07:30;6.78;;;2.08;;
9547;SDS011;4812;51.992;8.648;2023-04-25T16:13:44;6.93;;;2.13;;
9547;SDS011;4812;51.992;8.648;2023-04-25T16:19:44;6.15;;;1.10;;
9547;SDS011;4812;51.992;8.648;2023-04-25T16:25:55;5.38;;;0.90;;
9547;SDS011;4812;51.992;8.648;2023-04-25T16:32:00;2.47;;;0.82;;
9547;SDS011;4812;51.992;8.648;2023-04-25T16:34:53;3.78;;;1.10;;
9547;SDS011;4812;51.992;8.648;2023-04-25T16:38:01;2.00;;;0.90;;
9547;SDS011;4812;51.992;8.648;2023-04-25T16:40:53;2.92;;;1.27;;
9547;SDS011;4812;51.992;8.648;2023-04-25T16:43:57;4.38;;;1.08;;
9547;SDS011;4812;51.992;8.648;2023-04-25T16:46:50;2.47;;;1.25;;
9547;SDS011;4812;51.992;8.648;2023-04-25T16:53:00;7.97;;;2.00;;
9547;SDS011;4812;51.992;8.648;2023-04-25T16:55:52;5.53;;;1.77;;
9547;SDS011;4812;51.992;8.648;2023-04-25T16:58:40;7.22;;;2.35;;
9547;SDS011;4812;51.992;8.648;2023-04-25T17:01:33;4.03;;;1.40;;
9547;SDS011;4812;51.992;8.648;2023-04-25T17:04:26;3.20;;;1.58;;
9547;SDS011;4812;51.992;8.648;2023-04-25T17:07:20;4.55;;;2.45;;
9547;SDS011;4812;51.992;8.648;2023-04-25T17:10:14;5.40;;;2.40;;
9547;SDS011;4812;51.992;8.648;2023-04-25T17:13:07;4.50;;;1.73;;
9547;SDS011;4812;51.992;8.648;2023-04-25T17:16:00;8.95;;;1.85;;
9547;SDS011;4812;51.992;8.648;2023-04-25T17:22:07;7.80;;;2.63;;
9547;SDS011;4812;51.992;8.648;2023-04-25T17:25:00;10.45;;;3.10;;
9547;SDS011;4812;51.992;8.648;2023-04-25T17:27:51;5.60;;;1.92;;
9547;SDS011;4812;51.992;8.648;2023-04-25T17:30:44;5.05;;;1.90;;
9547;SDS011;4812;51.992;8.648;2023-04-25T17:33:36;5.95;;;1.88;;
9547;SDS011;4812;51.992;8.648;2023-04-25T17:36:29;4.63;;;2.50;;
9547;SDS011;4812;51.992;8.648;2023-04-25T17:39:24;6.88;;;2.13;;
9547;SDS011;4812;51.992;8.648;2023-04-25T17:42:16;5.65;;;1.98;;
9547;SDS011;4812;51.992;8.648;2023-04-25T17:45:09;2.70;;;1.67;;
9547;SDS011;4812;51.992;8.648;2023-04-25T17:48:03;4.72;;;1.67;;
9547;SDS011;4812;51.992;8.648;2023-04-25T17:50:57;6.75;;;1.92;;
9547;SDS011;4812;51.992;8.648;2023-04-25T17:53:49;7.47;;;2.20;;
9547;SDS011;4812;51.992;8.648;2023-04-25T17:56:44;8.82;;;2.65;;
9547;SDS011;4812;51.992;8.648;2023-04-25T17:59:36;5.13;;;1.92;;
9547;SDS011;4812;51.992;8.648;2023-04-25T18:02:29;4.80;;;2.00;;
9547;SDS011;4812;51.992;8.648;2023-04-25T18:05:22;5.40;;;2.75;;
9547;SDS011;4812;51.992;8.648;2023-04-25T18:08:15;5.13;;;2.00;;
9547;SDS011;4812;51.992;8.648;2023-04-25T18:11:08;9.05;;;3.60;;
9547;SDS011;4812;51.992;8.648;2023-04-25T18:14:02;3.95;;;1.92;;
9547;SDS011;4812;51.992;8.648;2023-04-25T18:16:55;8.45;;;2.38;;
9547;SDS011;4812;51.992;8.648;2023-04-25T18:19:47;6.38;;;2.03;;
9547;SDS011;4812;51.992;8.648;2023-04-25T18:22:42;5.63;;;2.20;;
9547;SDS011;4812;51.992;8.648;2023-04-25T18:25:36;6.85;;;1.75;;
9547;SDS011;4812;51.992;8.648;2023-04-25T18:31:50;5.75;;;1.73;;
9547;SDS011;4812;51.992;8.648;2023-04-25T18:37:47;8.02;;;1.92;;
9547;SDS011;4812;51.992;8.648;2023-04-25T18:43:53;11.38;;;2.65;;
9547;SDS011;4812;51.992;8.648;2023-04-25T18:50:04;12.23;;;1.98;;
9547;SDS011;4812;51.992;8.648;2023-04-25T18:56:12;6.63;;;1.38;;
9547;SDS011;4812;51.992;8.648;2023-04-25T18:59:06;5.03;;;1.45;;
9547;SDS011;4812;51.992;8.648;2023-04-25T19:01:58;4.80;;;1.45;;
9547;SDS011;4812;51.992;8.648;2023-04-25T19:04:52;9.25;;;4.00;;
9547;SDS011;4812;51.992;8.648;2023-04-25T19:07:47;11.30;;;1.77;;
9547;SDS011;4812;51.992;8.648;2023-04-25T19:10:40;10.55;;;2.30;;
9547;SDS011;4812;51.992;8.648;2023-04-25T19:13:53;7.10;;;2.80;;
9547;SDS011;4812;51.992;8.648;2023-04-25T19:16:46;5.00;;;2.00;;
9547;SDS011;4812;51.992;8.648;2023-04-25T19:19:45;5.93;;;1.38;;
9547;SDS011;4812;51.992;8.648;2023-04-25T19:22:38;4.32;;;1.30;;
9547;SDS011;4812;51.992;8.648;2023-04-25T19:25:32;7.82;;;2.05;;
9547;SDS011;4812;51.992;8.648;2023-04-25T19:28:25;6.95;;;2.60;;
9547;SDS011;4812;51.992;8.648;2023-04-25T19:31:18;4.90;;;1.60;;
9547;SDS011;4812;51.992;8.648;2023-04-25T19:34:15;5.95;;;1.98;;
9547;SDS011;4812;51.992;8.648;2023-04-25T19:37:08;3.17;;;1.75;;
9547;SDS011;4812;51.992;8.648;2023-04-25T19:43:23;6.85;;;2.20;;
9547;SDS011;4812;51.992;8.648;2023-04-25T19:49:41;4.65;;;1.38;;
9547;SDS011;4812;51.992;8.648;2023-04-25T19:55:38;9.02;;;1.92;;
9547;SDS011;4812;51.992;8.648;2023-04-25T19:58:33;3.88;;;1.70;;
9547;SDS011;4812;51.992;8.648;2023-04-25T20:04:38;11.77;;;3.03;;
9547;SDS011;4812;51.992;8.648;2023-04-25T20:07:30;12.88;;;3.00;;
9547;SDS011;4812;51.992;8.648;2023-04-25T20:10:23;5.85;;;2.20;;
9547;SDS011;4812;51.992;8.648;2023-04-25T20:13:15;3.08;;;1.38;;
9547;SDS011;4812;51.992;8.648;2023-04-25T20:16:10;6.00;;;2.30;;
9547;SDS011;4812;51.992;8.648;2023-04-25T20:19:03;4.53;;;1.92;;
9547;SDS011;4812;51.992;8.648;2023-04-25T20:21:57;9.93;;;1.90;;
9547;SDS011;4812;51.992;8.648;2023-04-25T20:27:54;11.02;;;1.85;;
9547;SDS011;4812;51.992;8.648;2023-04-25T20:30:47;5.28;;;1.70;;
9547;SDS011;4812;51.992;8.648;2023-04-25T20:33:41;10.63;;;2.15;;
9547;SDS011;4812;51.992;8.648;2023-04-25T20:36:33;7.40;;;2.08;;
9547;SDS011;4812;51.992;8.648;2023-04-25T20:42:47;3.58;;;1.50;;
9547;SDS011;4812;51.992;8.648;2023-04-25T20:45:41;13.68;;;2.20;;
9547;SDS011;4812;51.992;8.648;2023-04-25T20:48:34;6.15;;;2.25;;
9547;SDS011;4812;51.992;8.648;2023-04-25T20:51:29;8.20;;;1.80;;
9547;SDS011;4812;51.992;8.648;2023-04-25T20:54:22;11.57;;;2.63;;
9547;SDS011;4812;51.992;8.648;2023-04-25T20:57:16;7.72;;;2.13;;
9547;SDS011;4812;51.992;8.648;2023-04-25T21:00:09;6.00;;;2.03;;
9547;SDS011;4812;51.992;8.648;2023-04-25T21:03:08;9.35;;;2.58;;
9547;SDS011;4812;51.992;8.648;2023-04-25T21:06:02;5.38;;;1.85;;
9547;SDS011;4812;51.992;8.648;2023-04-25T21:08:57;7.28;;;2.50;;
9547;SDS011;4812;51.992;8.648;2023-04-25T21:11:49;13.90;;;2.25;;
9547;SDS011;4812;51.992;8.648;2023-04-25T21:14:42;8.48;;;1.67;;
9547;SDS011;4812;51.992;8.648;2023-04-25T21:17:35;5.75;;;2.13;;
9547;SDS011;4812;51.992;8.648;2023-04-25T21:23:45;7.85;;;2.20;;
9547;SDS011;4812;51.992;8.648;2023-04-25T21:29:51;4.25;;;1.42;;
9547;SDS011;4812;51.992;8.648;2023-04-25T21:32:43;8.43;;;2.40;;
9547;SDS011;4812;51.992;8.648;2023-04-25T21:35:32;5.82;;;1.98;;
9547;SDS011;4812;51.992;8.648;2023-04-25T21:38:25;9.52;;;2.05;;
9547;SDS011;4812;51.992;8.648;2023-04-25T21:41:17;5.50;;;1.60;;
9547;SDS011;4812;51.992;8.648;2023-04-25T21:44:10;3.70;;;1.70;;
9547;SDS011;4812;51.992;8.648;2023-04-25T21:47:06;8.13;;;2.83;;
9547;SDS011;4812;51.992;8.648;2023-04-25T21:49:58;13.57;;;1.98;;
9547;SDS011;4812;51.992;8.648;2023-04-25T21:52:51;4.10;;;1.85;;
9547;SDS011;4812;51.992;8.648;2023-04-25T21:58:55;7.93;;;2.35;;
9547;SDS011;4812;51.992;8.648;2023-04-25T22:01:48;6.07;;;1.98;;
9547;SDS011;4812;51.992;8.648;2023-04-25T22:04:42;4.22;;;1.60;;
9547;SDS011;4812;51.992;8.648;2023-04-25T22:07:37;11.57;;;3.15;;
9547;SDS011;4812;51.992;8.648;2023-04-25T22:13:47;8.38;;;2.20;;
9547;SDS011;4812;51.992;8.648;2023-04-25T22:19:57;10.27;;;2.45;;
9547;SDS011;4812;51.992;8.648;2023-04-25T22:26:06;11.40;;;2.67;;
9547;SDS011;4812;51.992;8.648;2023-04-25T22:28:58;4.45;;;2.00;;